Kybartai, Lithuania

10:57 PM EEST on September 02, 2014 (GMT +0300)
Kaunas International | Change Station
CLOSE
Current Station
Airport
Location: Kaunas,
Elevation: 256 ft
Nearby Weather Stations

Elev 256 ft 54.96 °N, 24.08 °E | Updated 7 minutes ago

Mostly Cloudy
Mostly Cloudy
55 °F
Feels Like 55 °F
N
5
Wind Variable Wind from North

Today
High -- | Low -- °F
--% Chance of Precip.
Yesterday
High -- | Low -- °F
Precip. -- in
6:37 AM 8:18 PM
First Quarter, 54% visible
Pressure 30.30 in
Visibility 6.2 miles
Clouds Mostly Cloudy 4400 ft
Dew Point 50 °F
Humidity 82%
Rainfall 0.00 in
Snow Depth Not available.
UV 0 out of 12
Pollen Not available.
Air Quality Not available.
Flu Activity Not available.
METAR EYKA 021950Z 01004KT 9999 BKN044 13/10 Q1026

More Conditions Fewer Conditions

Pressure 30.30 in
Visibility 6.2 miles
Clouds Mostly Cloudy 4400 ft
Dew Point 50 °F
Humidity 82%
Rainfall 0.00 in
Snow Depth Not available.
UV 0 out of 12
Pollen Not available.
Air Quality Not available.
Flu Activity Not available.
METAR EYKA 021950Z 01004KT 9999 BKN044 13/10 Q1026

More Conditions Fewer Conditions

10-Day Weather Forecast

Almanac

Astronomy

Sep. 02, 2014 Rise Set
Actual Time 6:37 AM EEST 8:18 PM EEST
Civil Twilight 5:59 AM EEST 8:56 PM EEST
Nautical Twilight 5:12 AM EEST 9:43 PM EEST
Astronomical Twilight 4:18 AM EEST 10:35 PM EEST
Moon 3:11 PM EEST 11:47 PM EEST
Length of Visible Light 14h 56m
Length of Day
13h 41m
Tomorrow will be 4m 19s shorter.
First Quarter, 54% of the Moon is Illuminated
Today
First Quarter
Sep 8
Full
Sep 15
Last Quarter
Sep 24
New
Oct 1
First Quarter

Today's Extremes

Country Highs Country Lows

Community

WunderPhotos

Upload Photos

1,749,751 photos uploaded!

WunderBlogs® & News

By Dr. Jeff Masters
Director of Meteorology, Weather Underground
By Kari Strenfel
Meteorologist, Weather Underground
By Christopher C. Burt
Weather Historian, Weather Underground
September 2, 2014
September 2, 2014
September 2, 2014

Nearby

Snow Depth

Not available.

Earthquake Activity

City Distance Mag. Time & Date
No recent earthquake activity has been reported nearby.
Minimum magnitude displayed is 2.5.

Coastal Water Temperatures

Place Temperature
No Stations Reporting

Nearby Weather Stations